createdAt,value
2022-10-18T00:01:08.102Z,9.00
2022-10-18T00:06:09.401Z,9.30
2022-10-18T00:08:39.045Z,10.60
2022-10-18T00:11:07.933Z,9.50
2022-10-18T00:13:36.213Z,9.70
2022-10-18T00:16:09.961Z,9.50
2022-10-18T00:18:37.995Z,9.60
2022-10-18T00:21:11.806Z,9.50
2022-10-18T00:23:40.288Z,9.80
2022-10-18T00:26:15.421Z,10.70
2022-10-18T00:28:44.259Z,10.40
2022-10-18T00:31:16.982Z,10.20
2022-10-18T00:33:47.173Z,10.10
2022-10-18T00:36:15.969Z,10.20
2022-10-18T00:38:44.910Z,10.20
2022-10-18T00:41:17.010Z,10.90
2022-10-18T00:44:26.700Z,11.80
2022-10-18T00:47:05.090Z,10.10
2022-10-18T00:49:37.570Z,10.50
2022-10-18T00:52:35.750Z,11.20
2022-10-18T00:55:05.979Z,10.20
2022-10-18T00:57:34.424Z,9.90
2022-10-18T01:00:04.335Z,9.00
2022-10-18T01:02:32.901Z,9.00
2022-10-18T01:05:01.049Z,8.20
2022-10-18T01:07:57.023Z,8.50
2022-10-18T01:10:49.845Z,8.10
2022-10-18T01:13:39.564Z,7.10
2022-10-18T01:16:31.254Z,8.10
2022-10-18T01:19:27.305Z,7.40
2022-10-18T01:22:08.165Z,7.70
2022-10-18T01:24:52.854Z,8.60
2022-10-18T01:27:36.246Z,8.60
2022-10-18T01:30:15.267Z,8.20
2022-10-18T01:32:49.086Z,7.50
2022-10-18T01:35:33.032Z,8.10
2022-10-18T01:38:06.925Z,8.30
2022-10-18T01:40:37.042Z,8.20
2022-10-18T01:45:35.253Z,8.50
2022-10-18T01:48:03.934Z,9.10
2022-10-18T01:50:34.202Z,8.60
2022-10-18T01:53:02.552Z,8.70
2022-10-18T01:55:43.548Z,7.70
2022-10-18T01:58:40.416Z,8.10
2022-10-18T02:01:43.735Z,8.10
2022-10-18T02:04:33.799Z,9.10
2022-10-18T02:07:55.448Z,9.30
2022-10-18T02:11:00.005Z,8.60
2022-10-18T02:13:34.857Z,8.80
2022-10-18T02:16:09.978Z,9.60
2022-10-18T02:18:42.551Z,8.70
2022-10-18T02:21:15.948Z,9.50
2022-10-18T02:23:46.274Z,10.30
2022-10-18T02:26:16.107Z,9.60
2022-10-18T02:28:45.908Z,10.00
2022-10-18T02:31:26.467Z,10.30
2022-10-18T02:33:58.984Z,9.90
2022-10-18T02:36:39.089Z,9.80
2022-10-18T02:39:14.444Z,10.20
2022-10-18T02:41:43.025Z,9.20
2022-10-18T02:44:11.510Z,9.00
2022-10-18T02:46:40.613Z,8.90
2022-10-18T02:49:08.784Z,8.50
2022-10-18T02:51:36.728Z,7.70
2022-10-18T02:54:05.550Z,7.10
2022-10-18T02:56:33.631Z,6.00
2022-10-18T02:59:01.907Z,7.00
2022-10-18T03:01:29.919Z,6.40
2022-10-18T03:03:57.955Z,6.90
2022-10-18T03:06:26.047Z,6.30
2022-10-18T03:08:54.355Z,6.70
2022-10-18T03:11:22.599Z,6.20
2022-10-18T03:13:50.467Z,6.30
2022-10-18T03:16:18.953Z,6.70
2022-10-18T03:18:46.768Z,6.30
2022-10-18T03:21:14.798Z,5.50
2022-10-18T03:23:42.787Z,6.20
2022-10-18T03:26:10.849Z,5.40
2022-10-18T03:28:38.888Z,4.90
2022-10-18T03:31:07.069Z,5.40
2022-10-18T03:33:35.382Z,5.90
2022-10-18T03:36:03.353Z,5.70
2022-10-18T03:38:31.848Z,5.60
2022-10-18T03:40:59.817Z,5.30
2022-10-18T03:43:27.991Z,5.20
2022-10-18T03:45:56.309Z,5.60
2022-10-18T03:48:24.294Z,5.80
2022-10-18T03:50:52.222Z,5.70
2022-10-18T03:53:20.295Z,5.70
2022-10-18T03:55:52.871Z,5.70
2022-10-18T03:58:21.584Z,5.20
2022-10-18T04:00:51.484Z,6.20
2022-10-18T04:03:21.198Z,5.60
2022-10-18T04:05:49.682Z,5.30
2022-10-18T04:08:18.575Z,5.90
2022-10-18T04:10:46.667Z,5.30
2022-10-18T04:13:14.876Z,6.10
2022-10-18T04:15:43.454Z,5.30
2022-10-18T04:18:11.389Z,7.00
2022-10-18T04:20:39.387Z,5.70
2022-10-18T04:23:07.236Z,6.20
2022-10-18T04:25:35.289Z,5.30
2022-10-18T04:28:03.387Z,5.00
2022-10-18T04:30:31.307Z,5.40
2022-10-18T04:32:59.543Z,6.50
2022-10-18T04:35:27.822Z,7.20
2022-10-18T04:37:55.894Z,5.70
2022-10-18T04:40:23.971Z,5.50
2022-10-18T04:42:51.947Z,6.40
2022-10-18T04:45:19.921Z,6.20
2022-10-18T04:47:47.901Z,6.90
2022-10-18T04:50:15.898Z,6.40
2022-10-18T04:52:44.579Z,6.20
2022-10-18T04:55:12.433Z,5.90
2022-10-18T04:57:40.709Z,6.60
2022-10-18T05:00:09.144Z,6.90
2022-10-18T05:02:37.376Z,6.30
2022-10-18T05:05:08.114Z,6.00
2022-10-18T05:07:38.435Z,6.30
2022-10-18T05:10:07.843Z,6.60
2022-10-18T05:12:36.121Z,6.20
2022-10-18T05:15:04.816Z,7.30
2022-10-18T05:17:32.858Z,6.50
2022-10-18T05:20:00.926Z,6.50
2022-10-18T05:22:29.389Z,6.30
2022-10-18T05:24:57.935Z,6.20
2022-10-18T05:27:25.833Z,6.30
2022-10-18T05:29:53.643Z,6.80
2022-10-18T05:32:22.029Z,6.40
2022-10-18T05:34:50.350Z,6.60
2022-10-18T05:37:18.454Z,6.30
2022-10-18T05:39:46.401Z,7.20
2022-10-18T05:42:14.374Z,7.50
2022-10-18T05:44:42.886Z,6.80
2022-10-18T05:47:11.134Z,6.40
2022-10-18T05:49:39.191Z,7.10
2022-10-18T05:52:07.064Z,8.70
2022-10-18T05:54:35.114Z,6.90
2022-10-18T05:57:02.990Z,6.30
2022-10-18T05:59:30.952Z,6.20
2022-10-18T06:01:59.142Z,6.60
2022-10-18T06:04:27.150Z,6.10
2022-10-18T06:06:55.261Z,5.90
2022-10-18T06:09:23.426Z,6.10
2022-10-18T06:11:51.378Z,6.60
2022-10-18T06:14:19.252Z,5.70
2022-10-18T06:16:47.224Z,5.80
2022-10-18T06:19:15.613Z,5.90
2022-10-18T06:21:44.555Z,5.80
2022-10-18T06:24:12.510Z,6.40
2022-10-18T06:26:40.449Z,6.50
2022-10-18T06:29:08.527Z,5.30
2022-10-18T06:31:37.520Z,5.60
2022-10-18T06:34:05.682Z,5.80
2022-10-18T06:36:33.676Z,5.80
2022-10-18T06:39:01.641Z,5.60
2022-10-18T06:41:29.624Z,5.70
2022-10-18T06:43:57.597Z,5.20
2022-10-18T06:46:26.493Z,5.00
2022-10-18T06:48:54.677Z,6.00
2022-10-18T06:51:22.852Z,4.90
2022-10-18T06:54:05.870Z,6.20
2022-10-18T06:56:39.396Z,6.00
2022-10-18T06:59:07.443Z,5.90
2022-10-18T07:01:35.679Z,5.60
2022-10-18T07:04:04.002Z,5.70
2022-10-18T07:06:32.399Z,5.50
2022-10-18T07:09:00.264Z,5.30
2022-10-18T07:11:28.331Z,5.20
2022-10-18T07:14:00.600Z,5.40
2022-10-18T07:16:29.290Z,5.90
2022-10-18T07:18:57.571Z,5.80
2022-10-18T07:21:26.568Z,5.40
2022-10-18T07:23:56.941Z,5.70
2022-10-18T07:26:28.359Z,5.80
2022-10-18T07:29:04.764Z,5.60
2022-10-18T07:31:35.774Z,6.30
2022-10-18T07:34:05.353Z,6.40
2022-10-18T07:36:34.162Z,6.00
2022-10-18T07:39:02.116Z,5.50
2022-10-18T07:41:30.313Z,6.00
2022-10-18T07:43:58.193Z,5.80
2022-10-18T07:46:26.508Z,5.90
2022-10-18T07:48:55.321Z,5.90
2022-10-18T07:51:23.714Z,5.90
2022-10-18T07:53:52.083Z,6.60
2022-10-18T07:56:23.568Z,7.10
2022-10-18T07:58:54.001Z,6.80
2022-10-18T08:01:23.665Z,6.50
2022-10-18T08:03:52.701Z,6.20
2022-10-18T08:06:22.827Z,6.50
2022-10-18T08:08:50.793Z,6.20
2022-10-18T08:11:22.227Z,6.60
2022-10-18T08:13:51.674Z,6.30
2022-10-18T08:16:22.903Z,6.70
2022-10-18T08:18:51.534Z,5.70
2022-10-18T08:21:20.929Z,5.30
2022-10-18T08:23:49.196Z,6.50
2022-10-18T08:26:20.048Z,5.60
2022-10-18T08:28:58.171Z,6.60
2022-10-18T08:31:37.867Z,6.00
2022-10-18T08:34:05.846Z,6.10
2022-10-18T08:36:33.795Z,5.90
2022-10-18T08:39:01.710Z,5.80
2022-10-18T08:41:55.765Z,5.30
2022-10-18T08:44:25.433Z,5.80
2022-10-18T08:47:07.127Z,6.20
2022-10-18T08:49:47.743Z,5.10
2022-10-18T08:52:34.739Z,5.80
2022-10-18T08:55:09.162Z,6.10
2022-10-18T08:57:37.034Z,5.90
2022-10-18T09:00:18.667Z,5.80
2022-10-18T09:03:05.368Z,5.80
2022-10-18T09:05:45.492Z,6.30
2022-10-18T09:08:54.869Z,5.00
2022-10-18T09:11:46.905Z,5.50
2022-10-18T09:14:23.842Z,4.70
2022-10-18T09:16:55.014Z,5.50
2022-10-18T09:19:41.532Z,5.50
2022-10-18T09:22:21.081Z,4.70
2022-10-18T09:24:57.183Z,4.70
2022-10-18T09:27:42.194Z,6.20
2022-10-18T09:30:25.522Z,5.00
2022-10-18T09:33:05.464Z,5.60
2022-10-18T09:36:05.083Z,6.20
2022-10-18T09:38:41.359Z,4.20
2022-10-18T09:41:20.687Z,5.10
2022-10-18T09:43:59.825Z,5.20
2022-10-18T09:46:39.197Z,4.30
2022-10-18T09:49:19.068Z,4.00
2022-10-18T09:51:49.277Z,4.90
2022-10-18T09:54:23.592Z,4.30
2022-10-18T09:57:02.424Z,5.10
2022-10-18T09:59:50.874Z,4.60
2022-10-18T10:02:21.912Z,4.50
2022-10-18T10:04:51.134Z,5.00
2022-10-18T10:07:21.921Z,4.40
2022-10-18T10:10:14.620Z,4.70
2022-10-18T10:12:42.901Z,4.80
2022-10-18T10:15:19.344Z,4.60
2022-10-18T10:18:02.416Z,4.90
2022-10-18T10:20:37.432Z,4.90
2022-10-18T10:23:08.931Z,4.20
2022-10-18T10:25:38.235Z,4.80
2022-10-18T10:28:20.605Z,4.60
2022-10-18T10:30:48.616Z,5.00
2022-10-18T10:33:57.691Z,5.40
2022-10-18T10:36:25.645Z,4.30
2022-10-18T10:39:04.766Z,4.70
2022-10-18T10:41:33.613Z,4.40
2022-10-18T10:44:05.015Z,4.90
2022-10-18T10:46:36.898Z,4.20
2022-10-18T10:49:35.062Z,4.80
2022-10-18T10:52:08.849Z,4.40
2022-10-18T10:54:52.492Z,4.00
2022-10-18T10:57:26.196Z,4.50
2022-10-18T10:59:56.360Z,5.00
2022-10-18T11:02:33.512Z,5.20
2022-10-18T11:05:25.007Z,4.80
2022-10-18T11:07:57.013Z,4.70
2022-10-18T11:10:30.901Z,4.90
2022-10-18T11:13:03.629Z,4.70
2022-10-18T11:15:45.229Z,4.40
2022-10-18T11:18:27.819Z,5.20
2022-10-18T11:20:58.454Z,5.40
2022-10-18T11:23:33.179Z,5.50
2022-10-18T11:26:32.409Z,5.30
2022-10-18T11:29:30.079Z,4.60
2022-10-18T11:32:26.780Z,4.80
2022-10-18T11:35:16.655Z,5.00
2022-10-18T11:37:47.529Z,4.80
2022-10-18T11:40:27.471Z,4.70
2022-10-18T11:43:50.540Z,4.80
2022-10-18T11:46:22.909Z,4.00
2022-10-18T11:49:02.920Z,4.60
2022-10-18T11:52:07.984Z,4.50
2022-10-18T11:54:43.845Z,5.00
2022-10-18T11:57:37.743Z,4.60
2022-10-18T12:00:23.751Z,4.90
2022-10-18T12:03:18.680Z,4.80
2022-10-18T12:05:48.752Z,5.90
2022-10-18T12:08:23.882Z,4.90
2022-10-18T12:11:10.225Z,4.60
2022-10-18T12:13:55.447Z,4.50
2022-10-18T12:16:49.578Z,4.80
2022-10-18T12:19:28.872Z,4.30
2022-10-18T12:22:02.678Z,4.30
2022-10-18T12:24:33.116Z,5.00
2022-10-18T12:27:02.304Z,4.40
2022-10-18T12:29:40.259Z,5.10
2022-10-18T12:32:13.163Z,5.10
2022-10-18T12:34:49.770Z,5.60
2022-10-18T12:37:20.635Z,5.20
2022-10-18T12:40:11.423Z,5.30
2022-10-18T12:42:48.100Z,5.50
2022-10-18T12:45:42.592Z,5.70
2022-10-18T12:48:29.040Z,6.90
2022-10-18T12:51:17.081Z,5.30
2022-10-18T12:53:49.182Z,5.10
2022-10-18T12:56:39.721Z,6.30
2022-10-18T12:59:16.874Z,6.20
2022-10-18T13:01:50.758Z,6.00
2022-10-18T13:04:28.117Z,6.90
2022-10-18T13:06:59.659Z,6.50
2022-10-18T13:09:28.763Z,6.10
2022-10-18T13:12:16.545Z,6.10
2022-10-18T13:15:13.376Z,6.90
2022-10-18T13:17:55.217Z,5.90
2022-10-18T13:20:40.861Z,6.80
2022-10-18T13:23:09.203Z,6.70
2022-10-18T13:25:58.639Z,6.30
2022-10-18T13:28:26.898Z,5.90
2022-10-18T13:31:09.880Z,6.70
2022-10-18T13:33:40.767Z,5.40
2022-10-18T13:36:22.663Z,6.30
2022-10-18T13:38:54.141Z,6.10
2022-10-18T13:41:29.180Z,6.10
2022-10-18T13:44:02.648Z,6.90
2022-10-18T13:46:33.488Z,5.80
2022-10-18T13:49:40.056Z,6.60
2022-10-18T13:52:54.750Z,6.70
2022-10-18T13:55:45.363Z,6.60
2022-10-18T13:58:32.094Z,6.00
2022-10-18T14:03:58.099Z,6.30
2022-10-18T14:06:36.325Z,5.90
2022-10-18T14:12:21.782Z,6.00
2022-10-18T14:15:03.533Z,5.70
2022-10-18T14:17:34.532Z,6.40
2022-10-18T14:20:20.738Z,6.80
2022-10-18T14:23:03.194Z,6.10
2022-10-18T14:25:35.157Z,6.60
2022-10-18T14:28:27.320Z,6.50
2022-10-18T14:31:05.553Z,6.10
2022-10-18T14:33:44.319Z,6.30
2022-10-18T14:36:15.669Z,6.00
2022-10-18T14:39:00.864Z,6.00
2022-10-18T14:41:30.955Z,6.70
2022-10-18T14:44:32.169Z,5.70
2022-10-18T14:47:22.527Z,6.00
2022-10-18T14:49:51.601Z,6.10
2022-10-18T14:52:26.089Z,7.10
2022-10-18T14:54:56.361Z,6.70
2022-10-18T14:57:42.453Z,6.30
2022-10-18T15:02:51.858Z,5.60
2022-10-18T15:05:23.722Z,5.80
2022-10-18T15:07:53.117Z,6.30
2022-10-18T15:10:33.688Z,6.60
2022-10-18T15:13:09.736Z,6.30
2022-10-18T15:15:39.370Z,6.20
2022-10-18T15:18:08.207Z,6.10
2022-10-18T15:20:37.812Z,6.30
2022-10-18T15:23:29.051Z,6.60
2022-10-18T15:26:04.622Z,6.50
2022-10-18T15:28:34.424Z,5.50
2022-10-18T15:31:03.334Z,6.00
2022-10-18T15:33:33.054Z,6.00
2022-10-18T15:36:17.963Z,6.50
2022-10-18T15:38:49.108Z,6.10
2022-10-18T15:41:57.986Z,6.20
2022-10-18T15:47:11.940Z,7.10
2022-10-18T15:49:46.473Z,6.10
2022-10-18T15:52:38.209Z,7.20
2022-10-18T15:55:32.068Z,6.40
2022-10-18T15:58:11.306Z,7.50
2022-10-18T16:00:39.293Z,6.20
2022-10-18T16:03:08.966Z,6.60
2022-10-18T16:05:38.232Z,7.00
2022-10-18T16:08:06.383Z,7.30
2022-10-18T16:10:34.366Z,7.10
2022-10-18T16:13:02.524Z,7.60
2022-10-18T16:15:30.583Z,6.70
2022-10-18T16:17:58.654Z,7.10
2022-10-18T16:20:26.609Z,7.60
2022-10-18T16:22:54.512Z,7.30
2022-10-18T16:25:22.341Z,8.60
2022-10-18T16:27:50.590Z,7.60
2022-10-18T16:30:21.034Z,8.00
2022-10-18T16:32:48.964Z,7.10
2022-10-18T16:35:16.979Z,8.20
2022-10-18T16:37:44.772Z,8.30
2022-10-18T16:40:25.214Z,8.20
2022-10-18T16:42:53.057Z,8.60
2022-10-18T16:45:21.053Z,7.90
2022-10-18T16:47:48.983Z,7.80
2022-10-18T16:50:19.803Z,8.50
2022-10-18T16:52:47.803Z,7.60
2022-10-18T16:55:15.977Z,8.80
2022-10-18T16:57:43.897Z,8.20
2022-10-18T17:00:22.940Z,8.50
2022-10-18T17:02:51.900Z,8.60
2022-10-18T17:05:20.580Z,9.20
2022-10-18T17:07:49.271Z,8.40
2022-10-18T17:10:21.433Z,9.70
2022-10-18T17:12:49.348Z,9.30
2022-10-18T17:15:18.477Z,9.30
2022-10-18T17:17:47.385Z,9.40
2022-10-18T17:20:24.427Z,9.90
2022-10-18T17:22:54.497Z,8.30
2022-10-18T17:25:22.463Z,9.10
2022-10-18T17:27:50.484Z,9.20
2022-10-18T17:30:18.592Z,10.80
2022-10-18T17:32:46.444Z,9.80
2022-10-18T17:35:14.369Z,9.50
2022-10-18T17:37:45.316Z,9.20
2022-10-18T17:40:14.056Z,9.50
2022-10-18T17:42:42.533Z,10.20
2022-10-18T17:45:10.657Z,9.10
2022-10-18T17:47:38.523Z,9.90
2022-10-18T17:50:06.919Z,8.80
2022-10-18T17:52:34.833Z,9.10
2022-10-18T17:55:02.739Z,10.40
2022-10-18T17:57:30.933Z,10.40
2022-10-18T17:59:59.052Z,9.60
2022-10-18T18:02:26.886Z,10.20
2022-10-18T18:04:55.127Z,9.30
2022-10-18T18:07:23.000Z,9.60
2022-10-18T18:09:50.897Z,10.80
2022-10-18T18:12:18.915Z,9.80
2022-10-18T18:14:47.254Z,10.00
2022-10-18T18:17:17.017Z,9.40
2022-10-18T18:19:49.497Z,9.30
2022-10-18T18:22:17.446Z,9.90
2022-10-18T18:24:45.401Z,10.20
2022-10-18T18:27:13.325Z,10.30
2022-10-18T18:29:41.157Z,9.60
2022-10-18T18:32:09.390Z,9.30
2022-10-18T18:34:37.398Z,10.00
2022-10-18T18:37:05.271Z,9.40
2022-10-18T18:39:33.186Z,9.70
2022-10-18T18:42:01.873Z,9.40
2022-10-18T18:44:29.979Z,9.60
2022-10-18T18:46:58.280Z,10.10
2022-10-18T18:49:26.447Z,9.90
2022-10-18T18:51:54.607Z,10.20
2022-10-18T18:54:22.718Z,9.60
2022-10-18T18:56:51.452Z,9.70
2022-10-18T18:59:19.242Z,10.40
2022-10-18T19:01:47.580Z,10.30
2022-10-18T19:04:20.453Z,10.00
2022-10-18T19:06:48.290Z,9.50
2022-10-18T19:09:18.078Z,9.10
2022-10-18T19:11:48.238Z,10.50
2022-10-18T19:14:16.618Z,10.60
2022-10-18T19:16:53.745Z,9.80
2022-10-18T19:19:24.208Z,10.80
2022-10-18T19:21:54.953Z,10.60
2022-10-18T19:24:24.730Z,10.40
2022-10-18T19:26:55.591Z,10.30
2022-10-18T19:29:25.007Z,10.40
2022-10-18T19:31:55.825Z,9.80
2022-10-18T19:34:25.750Z,9.50
2022-10-18T19:36:54.278Z,10.30
2022-10-18T19:39:26.605Z,10.00
2022-10-18T19:41:56.422Z,10.10
2022-10-18T19:44:28.235Z,10.10
2022-10-18T19:46:56.260Z,10.60
2022-10-18T19:49:24.192Z,9.80
2022-10-18T19:51:52.616Z,10.00
2022-10-18T19:54:21.101Z,10.60
2022-10-18T19:56:49.379Z,10.50
2022-10-18T19:59:17.766Z,11.20
2022-10-18T20:01:46.191Z,10.70
2022-10-18T20:04:15.079Z,11.40
2022-10-18T20:06:43.371Z,11.40
2022-10-18T20:09:16.097Z,10.80
2022-10-18T20:11:47.706Z,11.40
2022-10-18T20:14:15.833Z,11.40
2022-10-18T20:16:43.710Z,11.40
2022-10-18T20:19:11.649Z,11.00
2022-10-18T20:21:39.524Z,12.00
2022-10-18T20:24:08.040Z,11.50
2022-10-18T20:26:36.525Z,10.10
2022-10-18T20:29:04.982Z,9.80
2022-10-18T20:31:34.596Z,11.40
2022-10-18T20:34:05.259Z,11.40
2022-10-18T20:36:34.008Z,11.00
2022-10-18T20:39:02.230Z,10.90
2022-10-18T20:41:33.372Z,11.00
2022-10-18T20:44:04.530Z,10.70
2022-10-18T20:46:35.524Z,11.40
2022-10-18T20:49:06.010Z,9.40
2022-10-18T20:51:35.296Z,11.10
2022-10-18T20:56:38.718Z,10.20
2022-10-18T20:59:07.426Z,11.40
2022-10-18T21:01:37.148Z,10.60
2022-10-18T21:04:08.011Z,11.00
2022-10-18T21:06:38.684Z,10.30
2022-10-18T21:09:18.279Z,10.40
2022-10-18T21:11:49.864Z,10.40
2022-10-18T21:14:20.894Z,11.50
2022-10-18T21:16:51.207Z,13.00
2022-10-18T21:19:25.278Z,12.60
2022-10-18T21:21:56.986Z,10.60
2022-10-18T21:24:25.887Z,10.50
2022-10-18T21:26:54.598Z,10.80
2022-10-18T21:29:23.603Z,11.90
2022-10-18T21:31:55.212Z,11.00
2022-10-18T21:34:23.157Z,9.30
2022-10-18T21:36:51.326Z,12.60
2022-10-18T21:39:22.116Z,11.60
2022-10-18T21:41:50.970Z,11.80
2022-10-18T21:44:18.841Z,12.30
2022-10-18T21:46:47.069Z,11.10
2022-10-18T21:49:15.562Z,12.30
2022-10-18T21:51:43.793Z,10.90
2022-10-18T21:54:14.380Z,12.20
2022-10-18T21:56:42.665Z,11.20
2022-10-18T21:59:14.345Z,11.40
2022-10-18T22:01:42.328Z,10.70
2022-10-18T22:04:22.520Z,10.60
2022-10-18T22:06:50.941Z,10.80
2022-10-18T22:09:19.677Z,12.20
2022-10-18T22:11:51.545Z,9.90
2022-10-18T22:14:20.160Z,11.40
2022-10-18T22:16:48.349Z,12.30
2022-10-18T22:19:16.327Z,11.60
2022-10-18T22:21:44.319Z,11.10
2022-10-18T22:24:12.154Z,11.10
2022-10-18T22:26:42.477Z,11.50
2022-10-18T22:29:14.643Z,12.10
2022-10-18T22:31:46.496Z,11.60
2022-10-18T22:34:20.520Z,11.50
2022-10-18T22:36:48.797Z,11.50
2022-10-18T22:39:16.784Z,12.30
2022-10-18T22:41:45.386Z,11.10
2022-10-18T22:44:15.397Z,11.90
2022-10-18T22:46:43.385Z,12.30
2022-10-18T22:49:11.833Z,12.00
2022-10-18T22:51:40.589Z,11.90
2022-10-18T22:54:09.209Z,13.00
2022-10-18T22:56:37.111Z,12.90
2022-10-18T22:59:05.125Z,11.10
2022-10-18T23:01:33.038Z,11.70
2022-10-18T23:04:01.691Z,11.30
2022-10-18T23:06:35.814Z,11.40
2022-10-18T23:09:07.245Z,12.30
2022-10-18T23:11:36.355Z,11.50
2022-10-18T23:14:06.360Z,11.20
2022-10-18T23:16:35.228Z,11.10
2022-10-18T23:19:03.813Z,11.80
2022-10-18T23:21:34.199Z,10.30
2022-10-18T23:24:02.069Z,10.70
2022-10-18T23:26:30.033Z,10.10
2022-10-18T23:28:57.964Z,11.30
2022-10-18T23:31:29.223Z,10.30
2022-10-18T23:33:59.505Z,10.70
2022-10-18T23:36:27.502Z,10.60
2022-10-18T23:38:56.201Z,11.00
2022-10-18T23:41:24.580Z,10.60
2022-10-18T23:43:52.892Z,11.20
2022-10-18T23:46:21.173Z,10.80
2022-10-18T23:48:49.688Z,11.70
2022-10-18T23:51:18.136Z,10.40
2022-10-18T23:53:46.382Z,10.80
2022-10-18T23:56:16.611Z,11.10
2022-10-18T23:58:45.563Z,10.90
